Time;durP1;ratioP1;P1;durP2;ratioP2;P2;SDS_P1;SDS_P2;PMS_P1;PMS_P2;Temp;Humidity;BMP_temperature;BMP_pressure;BME280_temperature;BME280_humidity;BME280_pressure;Samples;Min_cycle;Max_cycle;Signal;HPM_P1;HPM_P2
2021/04/18 00:00:56;;;;;;;6.40;3.85;;;;;;;8.41;45.25;99284.31;3541177;40;20055;-68
2021/04/18 00:03:23;;;;;;;4.75;3.22;;;;;;;8.41;45.33;99286.13;3540737;40;20051;-66
2021/04/18 00:05:51;;;;;;;9.18;3.60;;;;;;;8.41;45.50;99280.88;3540683;40;20059;-67
2021/04/18 00:08:17;;;;;;;4.55;3.00;;;;;;;8.39;45.51;99282.84;3540241;40;20421;-67
2021/04/18 00:10:47;;;;;;;8.98;3.67;;;;;;;8.38;45.49;99278.56;3540636;40;20418;-68
2021/04/18 00:13:21;;;;;;;5.55;3.42;;;;;;;8.35;45.48;99277.03;3531578;40;20067;-70
2021/04/18 00:15:47;;;;;;;8.38;3.08;;;;;;;8.35;45.70;99274.41;3540603;40;20119;-69
2021/04/18 00:18:15;;;;;;;7.35;4.18;;;;;;;8.40;45.85;99271.28;3531310;40;20150;-68
2021/04/18 00:20:43;;;;;;;9.13;3.67;;;;;;;8.48;46.07;99271.28;3531482;40;20133;-66
2021/04/18 00:23:09;;;;;;;6.55;3.70;;;;;;;8.51;46.29;99270.97;3540697;40;20053;-66
2021/04/18 00:25:36;;;;;;;5.82;2.78;;;;;;;8.52;46.28;99274.41;3523432;40;20086;-68
2021/04/18 00:28:04;;;;;;;4.55;2.67;;;;;;;8.36;46.65;99270.78;3540746;40;20055;-67
2021/04/18 00:30:31;;;;;;;5.80;3.28;;;;;;;8.27;46.85;99266.50;3541341;40;20070;-68
2021/04/18 00:33:00;;;;;;;5.50;2.97;;;;;;;8.24;46.99;99266.84;3541326;40;20043;-67
2021/04/18 00:35:27;;;;;;;6.80;3.63;;;;;;;8.28;47.10;99259.44;3541299;40;20062;-67
2021/04/18 00:37:54;;;;;;;5.33;2.60;;;;;;;8.31;46.83;99261.75;3540419;40;20047;-66
2021/04/18 00:40:25;;;;;;;8.30;3.17;;;;;;;8.35;46.75;99255.16;3540540;40;20328;-67
2021/04/18 00:42:53;;;;;;;6.07;3.25;;;;;;;8.38;46.71;99252.22;3540457;40;20049;-67
2021/04/18 00:45:22;;;;;;;4.18;2.83;;;;;;;8.26;46.90;99256.16;3540358;40;20322;-68
2021/04/18 00:47:51;;;;;;;6.28;3.28;;;;;;;8.23;46.81;99246.75;3540180;40;20328;-68
2021/04/18 00:50:24;;;;;;;4.65;2.67;;;;;;;8.24;47.00;99248.41;3540591;40;20375;-67
2021/04/18 00:52:51;;;;;;;4.53;2.67;;;;;;;8.19;47.06;99246.28;3540383;40;20046;-68
2021/04/18 00:55:19;;;;;;;5.95;2.97;;;;;;;8.22;47.16;99245.13;3540335;40;20065;-68
2021/04/18 00:57:47;;;;;;;5.18;3.00;;;;;;;8.23;46.90;99238.84;3531089;40;20345;-68
2021/04/18 01:00:14;;;;;;;5.93;3.13;;;;;;;8.20;47.03;99247.09;3540206;40;20329;-67
2021/04/18 01:02:42;;;;;;;8.10;3.30;;;;;;;8.23;46.94;99248.59;3540118;40;20445;-67
2021/04/18 01:05:10;;;;;;;7.88;3.97;;;;;;;8.29;47.03;99242.66;3530736;40;20417;-68
2021/04/18 01:07:37;;;;;;;4.75;3.10;;;;;;;8.38;47.23;99245.13;3539818;40;20392;-66
2021/04/18 01:10:09;;;;;;;9.32;3.97;;;;;;;8.42;47.30;99235.91;3531023;40;20137;-67
2021/04/18 01:12:36;;;;;;;6.03;3.53;;;;;;;8.47;47.46;99243.31;3530994;40;20125;-68
2021/04/18 01:15:05;;;;;;;6.15;3.20;;;;;;;8.46;47.44;99241.66;3531153;40;20409;-68
2021/04/18 01:17:32;;;;;;;5.93;3.35;;;;;;;8.49;47.47;99240.47;3530684;40;20046;-67
2021/04/18 01:20:00;;;;;;;7.65;3.58;;;;;;;8.46;47.62;99236.41;3531143;40;20057;-67
2021/04/18 01:22:28;;;;;;;4.07;2.20;;;;;;;8.38;47.74;99245.13;3540123;40;20054;-68
2021/04/18 01:25:01;;;;;;;;;;;;;;;8.29;47.90;99237.41;3540832;40;20133;-67
2021/04/18 01:27:37;;;;;;;7.22;3.40;;;;;;;8.27;47.89;99239.34;3530662;40;19934;-68
2021/04/18 01:30:06;;;;;;;7.90;3.00;;;;;;;8.21;47.77;99240.03;3540241;40;20107;-66
2021/04/18 01:32:33;;;;;;;5.93;3.53;;;;;;;8.13;48.07;99235.59;3540078;40;20055;-66
2021/04/18 01:35:01;;;;;;;5.57;3.17;;;;;;;8.08;48.20;99235.25;3539816;40;20054;-66
2021/04/18 01:37:29;;;;;;;5.45;3.00;;;;;;;8.07;48.47;99230.97;3539642;40;20425;-65
2021/04/18 01:39:55;;;;;;;5.38;2.85;;;;;;;8.13;48.37;99232.97;3530513;40;20393;-67
2021/04/18 01:42:23;;;;;;;3.85;2.90;;;;;;;8.07;48.51;99233.59;3530502;40;20103;-66
2021/04/18 01:44:50;;;;;;;6.55;3.00;;;;;;;8.12;48.33;99226.88;3530599;40;20348;-67
2021/04/18 01:47:17;;;;;;;5.45;3.35;;;;;;;8.12;48.55;99231.28;3539804;40;20082;-67
2021/04/18 01:49:45;;;;;;;5.30;3.38;;;;;;;8.12;48.73;99237.41;3530846;40;20316;-68
2021/04/18 01:52:12;;;;;;;5.93;2.78;;;;;;;8.16;48.56;99235.25;3540155;40;20310;-66
2021/04/18 01:54:40;;;;;;;7.78;3.08;;;;;;;8.19;48.54;99232.28;3530740;40;20058;-67
2021/04/18 01:57:08;;;;;;;6.25;2.90;;;;;;;8.17;48.67;99229.81;3539841;40;20145;-68
2021/04/18 01:59:41;;;;;;;6.70;3.38;;;;;;;8.16;48.91;99232.59;3530711;40;20051;-68
2021/04/18 02:02:31;;;;;;;6.18;3.25;;;;;;;8.24;48.85;99226.50;3537395;40;20043;-68
2021/04/18 02:05:07;;;;;;;4.78;3.60;;;;;;;8.26;48.51;99221.91;3530656;40;20058;-66
2021/04/18 02:07:34;;;;;;;8.18;3.25;;;;;;;8.23;48.47;99220.44;3530267;40;20050;-66
2021/04/18 02:10:03;;;;;;;4.20;3.13;;;;;;;8.22;48.44;99224.06;3540014;40;20117;-70
2021/04/18 02:12:30;;;;;;;5.75;3.28;;;;;;;8.24;48.56;99229.16;3541401;40;20053;-66
2021/04/18 02:14:57;;;;;;;6.50;3.42;;;;;;;8.25;48.49;99226.38;3531611;40;20055;-67
2021/04/18 02:17:26;;;;;;;5.95;3.25;;;;;;;8.28;48.41;99222.56;3531375;40;20054;-68
2021/04/18 02:19:54;;;;;;;6.75;3.45;;;;;;;8.30;48.41;99217.97;3530996;40;20090;-66
2021/04/18 02:22:21;;;;;;;7.82;3.72;;;;;;;8.29;48.17;99221.59;3530309;40;20047;-66
2021/04/18 02:24:51;;;;;;;5.82;3.30;;;;;;;8.13;48.54;99215.34;3530376;40;20087;-66
2021/04/18 02:27:19;;;;;;;4.57;2.85;;;;;;;8.09;48.81;99215.84;3539420;40;20128;-66
2021/04/18 02:29:52;;;;;;;8.18;3.63;;;;;;;8.06;48.89;99213.53;3530705;40;20364;-66
2021/04/18 02:32:23;;;;;;;5.57;2.80;;;;;;;8.05;49.16;99218.00;3530569;40;20050;-66
2021/04/18 02:34:57;;;;;;;5.85;3.67;;;;;;;8.10;49.10;99220.13;3584586;23;20426;-67
2021/04/18 02:37:24;;;;;;;7.03;3.72;;;;;;;8.12;49.17;99226.03;3538474;40;20086;-67
2021/04/18 02:39:51;;;;;;;6.40;2.88;;;;;;;8.09;49.40;99224.56;3529991;40;20058;-67
2021/04/18 02:42:19;;;;;;;6.07;3.35;;;;;;;7.97;49.54;99220.63;3539327;40;20137;-68
2021/04/18 02:44:47;;;;;;;5.05;3.22;;;;;;;7.92;49.75;99230.84;3530425;40;20054;-68
2021/04/18 02:47:14;;;;;;;5.00;2.90;;;;;;;7.97;49.89;99222.44;3530065;40;20073;-68
2021/04/18 02:49:48;;;;;;;5.28;3.28;;;;;;;7.90;49.61;99228.34;3539438;40;20431;-67
2021/04/18 02:52:14;;;;;;;6.78;3.60;;;;;;;7.87;49.72;99225.22;3539612;40;20541;-68
2021/04/18 02:54:41;;;;;;;7.00;2.88;;;;;;;7.85;49.57;99221.94;3539475;40;20070;-67
2021/04/18 02:57:11;;;;;;;7.53;3.20;;;;;;;7.89;49.94;99224.09;3532041;40;20051;-69
2021/04/18 02:59:39;;;;;;;3.63;2.50;;;;;;;7.84;49.58;99217.69;3530819;40;20046;-67
2021/04/18 03:02:05;;;;;;;5.25;2.92;;;;;;;7.71;50.21;99220.78;3530077;40;20066;-68
2021/04/18 03:04:37;;;;;;;7.95;3.13;;;;;;;7.66;50.58;99236.25;3538305;40;20039;-67
2021/04/18 03:07:04;;;;;;;5.13;3.30;;;;;;;7.69;50.71;99234.09;3530045;40;20057;-67
2021/04/18 03:09:31;;;;;;;4.72;2.67;;;;;;;7.75;50.73;99223.91;3539699;40;20062;-67
2021/04/18 03:11:58;;;;;;;4.35;2.50;;;;;;;7.77;50.44;99225.41;3538279;40;20066;-67
2021/04/18 03:14:28;;;;;;;3.78;2.50;;;;;;;7.76;50.51;99225.56;3529972;40;20080;-67
2021/04/18 03:16:57;;;;;;;5.03;3.33;;;;;;;7.72;50.53;99227.72;3538928;40;20054;-67
2021/04/18 03:19:31;;;;;;;3.47;2.70;;;;;;;7.72;50.46;99226.88;3530200;40;20043;-67
2021/04/18 03:21:59;;;;;;;4.47;3.25;;;;;;;7.74;50.77;99230.16;3530277;40;20332;-67
2021/04/18 03:24:29;;;;;;;5.03;2.42;;;;;;;7.80;50.92;99229.53;3530075;40;20054;-66
2021/04/18 03:26:55;;;;;;;5.82;2.28;;;;;;;7.86;50.94;99226.22;3539531;40;20055;-67
2021/04/18 03:29:23;;;;;;;4.53;2.80;;;;;;;7.90;50.70;99231.00;3530492;40;20066;-66
2021/04/18 03:31:50;;;;;;;3.90;2.40;;;;;;;7.84;50.44;99221.13;3528103;40;20051;-66
2021/04/18 03:34:18;;;;;;;5.72;2.78;;;;;;;7.83;50.75;99224.72;3538111;40;20409;-67
2021/04/18 03:36:45;;;;;;;5.63;3.25;;;;;;;7.75;50.76;99223.91;3539326;40;20051;-66
2021/04/18 03:39:16;;;;;;;4.18;2.63;;;;;;;7.81;51.16;99228.53;3519295;40;20130;-67
2021/04/18 03:41:46;;;;;;;6.05;2.75;;;;;;;7.91;51.03;99223.91;3537632;40;20161;-67
2021/04/18 03:44:13;;;;;;;4.63;2.55;;;;;;;7.95;50.71;99217.31;3530553;40;20047;-67
2021/04/18 03:46:40;;;;;;;8.43;3.10;;;;;;;7.97;50.93;99219.81;3531104;40;20050;-66
2021/04/18 03:49:09;;;;;;;7.43;3.00;;;;;;;7.93;51.13;99219.31;3531427;40;20051;-66
2021/04/18 03:51:51;;;;;;;4.32;2.88;;;;;;;7.91;51.32;99221.28;3530693;40;20050;-67
2021/04/18 03:54:19;;;;;;;5.40;2.75;;;;;;;7.96;51.13;99221.63;3539702;40;20047;-66
2021/04/18 03:56:47;;;;;;;7.18;3.25;;;;;;;7.93;51.03;99222.75;3539519;40;20062;-65
2021/04/18 03:59:14;;;;;;;4.40;3.17;;;;;;;7.90;50.96;99223.09;3530811;40;20070;-65
2021/04/18 04:01:40;;;;;;;4.22;2.65;;;;;;;7.94;51.04;99219.13;3530778;40;20061;-66
2021/04/18 04:04:12;;;;;;;5.57;3.40;;;;;;;7.93;51.03;99222.75;3539647;40;20586;-65
2021/04/18 04:06:42;;;;;;;4.88;3.30;;;;;;;7.93;51.21;99214.88;3529712;40;20055;-67
2021/04/18 04:09:11;;;;;;;6.65;3.17;;;;;;;7.96;51.15;99219.00;3529624;40;20047;-67
2021/04/18 04:11:38;;;;;;;4.60;3.08;;;;;;;7.95;51.24;99215.50;3538037;40;20078;-67
2021/04/18 04:14:08;;;;;;;4.63;2.88;;;;;;;7.93;51.07;99217.50;3539866;40;20062;-67
2021/04/18 04:16:42;;;;;;;6.18;2.30;;;;;;;7.98;51.12;99218.81;3540519;40;20047;-67
2021/04/18 04:19:12;;;;;;;5.93;3.55;;;;;;;7.98;51.00;99210.91;3531059;40;20066;-67
2021/04/18 04:22:02;;;;;;;5.80;2.83;;;;;;;7.92;51.18;99217.69;3521921;40;20105;-67
2021/04/18 04:24:46;;;;;;;6.60;3.37;;;;;;;7.81;51.17;99221.44;3540402;40;20050;-67
2021/04/18 04:27:14;;;;;;;5.25;3.35;;;;;;;7.75;51.36;99216.84;3531134;40;20055;-67
2021/04/18 04:29:41;;;;;;;7.20;3.00;;;;;;;7.69;51.47;99228.03;3540364;40;20569;-67
2021/04/18 04:32:08;;;;;;;8.30;3.53;;;;;;;7.50;51.67;99229.16;3540498;40;20140;-67
2021/04/18 04:34:35;;;;;;;6.78;3.33;;;;;;;7.47;52.12;99226.00;3540303;40;20047;-67
2021/04/18 04:37:02;;;;;;;4.95;2.80;;;;;;;7.43;52.38;99228.16;3540314;40;20381;-67
2021/04/18 04:39:29;;;;;;;6.05;2.88;;;;;;;7.44;52.09;99229.81;3540536;40;20086;-67
2021/04/18 04:41:57;;;;;;;4.93;3.20;;;;;;;7.37;52.36;99234.06;3541001;40;20422;-65
2021/04/18 04:44:24;;;;;;;4.28;3.00;;;;;;;7.34;52.39;99235.19;3540812;40;20047;-66
2021/04/18 04:46:50;;;;;;;5.05;2.60;;;;;;;7.34;52.47;99239.63;3540633;40;20062;-65
2021/04/18 04:49:17;;;;;;;4.72;3.15;;;;;;;7.37;52.73;99228.81;3540856;40;20051;-68
2021/04/18 04:51:44;;;;;;;4.00;3.38;;;;;;;7.44;52.64;99230.63;3540957;40;20347;-67
2021/04/18 04:54:11;;;;;;;6.88;3.38;;;;;;;7.43;52.65;99228.16;3540723;40;20404;-68
2021/04/18 04:56:37;;;;;;;8.32;3.80;;;;;;;7.47;52.94;99231.28;3539790;40;20053;-68
2021/04/18 04:59:05;;;;;;;5.47;3.40;;;;;;;7.49;52.75;99235.41;3531433;40;20091;-67
2021/04/18 05:01:32;;;;;;;9.73;3.85;;;;;;;7.49;52.90;99245.94;3540776;40;20058;-68
2021/04/18 05:03:59;;;;;;;5.82;3.92;;;;;;;7.49;52.91;99245.09;3531929;40;20054;-68
2021/04/18 05:06:26;;;;;;;6.40;3.42;;;;;;;7.50;52.95;99239.66;3540608;40;20073;-68
2021/04/18 05:08:52;;;;;;;5.97;3.70;;;;;;;7.33;53.02;99245.88;3540298;40;20404;-66
2021/04/18 05:11:19;;;;;;;6.22;3.35;;;;;;;7.27;53.44;99244.75;3540759;40;20424;-66
2021/04/18 05:13:46;;;;;;;6.95;3.00;;;;;;;7.38;53.36;99244.41;3540651;40;20420;-67
2021/04/18 05:16:13;;;;;;;5.60;3.55;;;;;;;7.48;53.29;99244.28;3539474;40;20409;-67
2021/04/18 05:18:44;;;;;;;6.03;3.80;;;;;;;7.56;53.23;99241.66;3539036;40;20046;-67
2021/04/18 05:21:11;;;;;;;6.85;3.80;;;;;;;7.67;52.99;99240.50;3531195;40;20133;-67
2021/04/18 05:23:38;;;;;;;6.25;3.65;;;;;;;7.65;52.96;99242.50;3540391;40;20310;-68
2021/04/18 05:26:06;;;;;;;5.95;4.00;;;;;;;7.74;52.70;99244.13;3540552;40;20355;-68
2021/04/18 05:28:33;;;;;;;7.20;3.42;;;;;;;7.80;52.58;99246.13;3540332;40;20081;-68
2021/04/18 05:30:59;;;;;;;9.68;4.15;;;;;;;7.84;52.68;99241.38;3539667;40;20050;-67
2021/04/18 05:33:27;;;;;;;7.30;5.03;;;;;;;7.84;52.56;99255.34;3540529;40;20054;-67
2021/04/18 05:35:54;;;;;;;9.82;5.32;;;;;;;7.74;52.88;99245.97;3540014;40;20086;-68
2021/04/18 05:38:20;;;;;;;8.30;5.53;;;;;;;7.76;53.10;99250.06;3540215;40;20057;-68
2021/04/18 05:40:47;;;;;;;9.77;4.65;;;;;;;7.84;53.07;99251.91;3540475;40;20137;-68
2021/04/18 05:43:14;;;;;;;10.25;5.00;;;;;;;7.94;53.00;99245.47;3540605;40;20052;-68
2021/04/18 05:45:41;;;;;;;6.55;4.25;;;;;;;7.91;52.57;99251.06;3540624;40;20401;-68
2021/04/18 05:48:08;;;;;;;4.88;3.90;;;;;;;7.89;52.55;99249.59;3539183;40;20051;-66
2021/04/18 05:50:36;;;;;;;5.57;3.60;;;;;;;7.90;52.38;99248.59;3531303;40;20053;-69
2021/04/18 05:53:03;;;;;;;5.32;3.65;;;;;;;7.92;52.55;99250.09;3540236;40;20071;-69
2021/04/18 05:55:29;;;;;;;4.40;2.92;;;;;;;7.99;52.33;99255.50;3540676;40;20331;-71
2021/04/18 05:57:56;;;;;;;6.40;3.50;;;;;;;7.98;52.17;99255.69;3540319;40;20038;-70
2021/04/18 06:00:23;;;;;;;7.25;3.50;;;;;;;8.05;52.19;99256.66;3540826;40;20046;-69
2021/04/18 06:02:50;;;;;;;9.05;3.90;;;;;;;8.15;52.11;99257.31;3539988;40;20059;-68
2021/04/18 06:05:17;;;;;;;6.38;3.97;;;;;;;8.12;52.04;99261.13;3530989;40;20047;-68
2021/04/18 06:07:45;;;;;;;5.68;3.83;;;;;;;8.15;51.86;99255.50;3539642;40;20057;-69
2021/04/18 06:10:13;;;;;;;7.95;4.45;;;;;;;8.22;51.92;99258.28;3540113;40;20047;-69
2021/04/18 06:12:40;;;;;;;6.60;4.05;;;;;;;8.26;51.60;99261.41;3531113;40;20056;-69
2021/04/18 06:15:08;;;;;;;5.80;3.97;;;;;;;8.26;51.38;99256.16;3530615;40;20055;-68
2021/04/18 06:17:35;;;;;;;9.30;4.25;;;;;;;8.35;51.34;99255.97;3539746;40;20054;-69
2021/04/18 06:20:04;;;;;;;5.95;3.72;;;;;;;8.43;51.14;99258.63;3539814;40;20063;-69
2021/04/18 06:22:31;;;;;;;5.70;4.15;;;;;;;8.47;50.73;99256.47;3539952;40;20144;-69
2021/04/18 06:24:58;;;;;;;9.43;3.90;;;;;;;8.53;50.66;99254.97;3540326;40;20358;-68
2021/04/18 06:27:25;;;;;;;8.10;4.03;;;;;;;8.57;50.69;99253.63;3539900;40;20420;-68
2021/04/18 06:29:52;;;;;;;4.63;3.85;;;;;;;8.70;50.38;99248.69;3540065;40;20313;-67
2021/04/18 06:32:18;;;;;;;6.93;4.20;;;;;;;8.71;50.19;99250.31;3540528;40;20074;-67
2021/04/18 06:34:57;;;;;;;8.57;4.50;;;;;;;8.75;49.68;99250.81;3539227;40;20074;-68
2021/04/18 06:37:24;;;;;;;8.63;4.30;;;;;;;8.82;49.62;99251.78;3539474;40;20432;-67
2021/04/18 06:39:51;;;;;;;12.65;7.43;;;;;;;8.89;49.55;99255.34;3539943;40;20057;-68
2021/04/18 06:42:23;;;;;;;7.40;5.43;;;;;;;8.97;49.61;99251.88;3531148;40;20062;-67
2021/04/18 06:44:50;;;;;;;7.93;5.60;;;;;;;9.04;49.45;99255.47;3540241;40;20063;-69
2021/04/18 06:47:17;;;;;;;8.05;5.30;;;;;;;9.12;49.58;99258.06;3539655;40;20046;-69
2021/04/18 06:49:44;;;;;;;6.80;5.05;;;;;;;9.17;49.19;99263.66;3539458;40;20062;-69
2021/04/18 06:52:12;;;;;;;9.38;5.00;;;;;;;9.28;49.25;99260.63;3530498;40;20057;-69
2021/04/18 06:54:39;;;;;;;7.63;5.30;;;;;;;9.46;48.51;99254.25;3540049;40;20078;-68
2021/04/18 06:57:07;;;;;;;10.15;5.88;;;;;;;9.56;48.31;99255.69;3539383;40;20058;-69
2021/04/18 06:59:37;;;;;;;10.07;6.05;;;;;;;9.60;48.33;99256.16;3539505;40;20054;-69
2021/04/18 07:02:04;;;;;;;10.18;6.88;;;;;;;9.64;48.12;99252.19;3522335;40;20111;-69
2021/04/18 07:04:32;;;;;;;9.57;6.03;;;;;;;9.55;48.13;99261.97;3539457;40;20042;-69
2021/04/18 07:07:00;;;;;;;11.57;6.97;;;;;;;9.67;48.19;99255.28;3539458;40;20102;-69
2021/04/18 07:09:27;;;;;;;8.90;6.63;;;;;;;9.74;47.78;99257.22;3539633;40;20055;-68
2021/04/18 07:11:56;;;;;;;11.10;6.53;;;;;;;9.76;47.80;99248.13;3539675;40;20101;-67
2021/04/18 07:14:25;;;;;;;16.50;8.63;;;;;;;9.59;47.66;99251.88;3539936;40;20460;-68
2021/04/18 07:16:54;;;;;;;10.48;7.35;;;;;;;9.68;47.72;99261.41;3539479;40;20086;-67
2021/04/18 07:19:23;;;;;;;13.80;7.90;;;;;;;9.61;47.58;99258.63;3530979;40;20050;-67
2021/04/18 07:21:52;;;;;;;10.05;6.40;;;;;;;9.70;47.30;99261.22;3530974;40;20062;-67
2021/04/18 07:24:20;;;;;;;10.90;7.80;;;;;;;9.76;46.97;99263.16;3541033;40;20046;-68
2021/04/18 07:26:57;;;;;;;11.55;8.40;;;;;;;9.60;47.01;99256.16;3543205;40;20086;-67
2021/04/18 07:29:25;;;;;;;12.23;8.52;;;;;;;9.37;47.83;99256.94;3543356;40;20136;-67
2021/04/18 07:31:54;;;;;;;12.75;9.25;;;;;;;9.22;48.27;99265.75;3540956;40;20059;-67
2021/04/18 07:34:23;;;;;;;17.02;10.65;;;;;;;9.24;48.39;99261.16;3540080;40;20058;-67
2021/04/18 07:37:05;;;;;;;15.18;10.02;;;;;;;9.38;48.25;99253.31;3531027;40;20074;-67
2021/04/18 07:39:42;;;;;;;17.20;9.75;;;;;;;9.55;48.25;99261.13;3540252;40;20086;-66
2021/04/18 07:42:32;;;;;;;16.98;10.05;;;;;;;9.52;48.73;99264.97;3531600;40;20321;-66
2021/04/18 07:45:02;;;;;;;17.50;11.10;;;;;;;9.62;48.72;99259.44;3540118;40;20041;-66
2021/04/18 07:47:29;;;;;;;12.18;8.98;;;;;;;9.72;48.92;99254.75;3530960;40;20134;-67
2021/04/18 07:49:57;;;;;;;14.48;10.23;;;;;;;9.96;48.69;99251.13;3532120;40;20059;-68
2021/04/18 07:52:25;;;;;;;14.98;10.30;;;;;;;10.06;48.77;99251.69;3540957;40;20082;-66
2021/04/18 07:54:52;;;;;;;15.10;9.70;;;;;;;10.08;48.82;99248.84;3541441;40;20058;-68
2021/04/18 07:57:19;;;;;;;16.70;11.40;;;;;;;10.05;49.21;99247.41;3541247;40;20051;-68
2021/04/18 07:59:46;;;;;;;19.85;11.85;;;;;;;10.00;49.35;99249.78;3541310;40;20376;-67
2021/04/18 08:02:17;;;;;;;17.25;11.95;;;;;;;9.95;49.44;99241.53;3532185;40;20050;-66
2021/04/18 08:04:47;;;;;;;16.90;10.73;;;;;;;9.86;49.97;99247.88;3541296;40;20053;-67
2021/04/18 08:07:15;;;;;;;20.70;12.15;;;;;;;9.92;49.90;99253.28;3540983;40;20405;-67
2021/04/18 08:09:43;;;;;;;19.73;10.98;;;;;;;9.70;50.65;99251.47;3541285;40;20051;-66
2021/04/18 08:12:12;;;;;;;16.63;11.48;;;;;;;9.55;51.23;99256.69;3532288;40;20052;-66
2021/04/18 08:14:41;;;;;;;14.35;11.25;;;;;;;9.49;51.44;99260.03;3540847;40;20051;-68
2021/04/18 08:17:09;;;;;;;16.95;11.23;;;;;;;9.46;51.75;99264.81;3540192;40;20063;-68
2021/04/18 08:19:38;;;;;;;16.73;11.80;;;;;;;9.41;52.20;99265.34;3540791;40;20058;-68
2021/04/18 08:22:06;;;;;;;18.92;12.05;;;;;;;9.18;53.10;99268.78;3541142;40;20055;-69
2021/04/18 08:24:35;;;;;;;17.77;11.93;;;;;;;9.00;53.76;99267.34;3541328;40;20061;-69
2021/04/18 08:27:05;;;;;;;16.85;11.93;;;;;;;8.76;54.56;99266.44;3539715;40;20136;-68
2021/04/18 08:29:32;;;;;;;19.35;12.18;;;;;;;8.87;55.01;99270.53;3542364;40;20058;-66
2021/04/18 08:32:09;;;;;;;15.93;11.63;;;;;;;8.86;55.46;99269.72;3542593;40;20396;-66
2021/04/18 08:34:43;;;;;;;18.52;13.05;;;;;;;8.82;55.77;99278.16;3544421;40;20047;-66
2021/04/18 08:37:17;;;;;;;20.10;13.20;;;;;;;8.72;56.12;99277.50;3543939;40;20055;-68
2021/04/18 08:39:44;;;;;;;22.77;12.13;;;;;;;8.72;56.76;99278.31;3540704;40;20389;-67
2021/04/18 08:42:24;;;;;;;16.52;11.95;;;;;;;8.77;56.95;99278.63;3532310;40;20352;-65
2021/04/18 08:44:52;;;;;;;18.85;12.77;;;;;;;9.05;56.94;99280.84;3532588;40;20068;-68
2021/04/18 08:47:21;;;;;;;18.85;12.02;;;;;;;9.21;56.92;99280.78;3541354;40;20057;-69
2021/04/18 08:49:50;;;;;;;17.40;11.88;;;;;;;9.46;56.42;99273.56;3532545;40;20395;-68
2021/04/18 08:52:23;;;;;;;18.60;12.27;;;;;;;9.52;56.26;99279.97;3539901;40;20349;-68
2021/04/18 08:54:52;;;;;;;18.15;13.18;;;;;;;9.77;56.11;99281.44;3541509;40;20046;-68
2021/04/18 08:57:22;;;;;;;16.27;11.52;;;;;;;10.11;56.04;99270.44;3531662;40;20413;-68
2021/04/18 08:59:53;;;;;;;18.15;12.50;;;;;;;10.46;55.70;99275.31;3541526;40;20034;-69
2021/04/18 09:02:20;;;;;;;18.77;12.65;;;;;;;10.60;54.66;99274.50;3541210;40;20359;-66
2021/04/18 09:04:49;;;;;;;17.73;13.02;;;;;;;10.86;54.88;99280.19;3541794;40;20042;-68
2021/04/18 09:07:17;;;;;;;18.83;12.85;;;;;;;11.13;54.54;99270.75;3541220;40;20467;-68
2021/04/18 09:09:45;;;;;;;19.42;13.95;;;;;;;11.51;53.67;99281.19;3541263;40;20042;-66
2021/04/18 09:12:13;;;;;;;18.27;12.15;;;;;;;11.52;52.65;99274.88;3531695;40;20050;-66
2021/04/18 09:14:43;;;;;;;17.25;12.80;;;;;;;11.62;52.47;99271.91;3540982;40;20054;-70
2021/04/18 09:17:12;;;;;;;18.73;13.68;;;;;;;11.58;51.64;99275.94;3540768;40;20094;-68
2021/04/18 09:19:40;;;;;;;22.17;12.95;;;;;;;11.52;51.34;99276.72;3541186;40;20050;-68
2021/04/18 09:22:10;;;;;;;19.90;14.15;;;;;;;11.25;51.37;99272.91;3541070;40;20403;-69
2021/04/18 09:24:42;;;;;;;17.33;13.00;;;;;;;11.12;51.24;99277.03;3541030;40;20055;-68
2021/04/18 09:27:14;;;;;;;20.40;16.08;;;;;;;11.32;50.91;99274.66;3541562;40;20054;-69
2021/04/18 09:29:45;;;;;;;17.02;13.07;;;;;;;11.29;50.63;99272.38;3532831;40;20412;-69
2021/04/18 09:32:13;;;;;;;18.92;14.52;;;;;;;11.10;51.14;99270.28;3532929;40;20035;-68
2021/04/18 09:34:42;;;;;;;17.75;12.77;;;;;;;11.34;51.13;99269.97;3541996;40;20126;-69
2021/04/18 09:37:13;;;;;;;16.15;12.30;;;;;;;11.73;51.12;99268.78;3541850;40;20063;-70
2021/04/18 09:39:41;;;;;;;19.33;13.95;;;;;;;12.10;50.38;99267.72;3541466;40;20057;-69
2021/04/18 09:42:09;;;;;;;17.70;13.38;;;;;;;12.15;49.76;99261.84;3532120;40;20058;-69
2021/04/18 09:44:42;;;;;;;15.18;11.85;;;;;;;12.37;49.71;99260.81;3541104;40;20043;-68
2021/04/18 09:47:22;;;;;;;17.70;13.23;;;;;;;12.45;48.80;99256.34;3543496;40;20042;-66
2021/04/18 09:49:55;;;;;;;18.20;12.88;;;;;;;12.37;48.69;99260.81;3546648;40;20070;-68
2021/04/18 09:52:33;;;;;;;14.30;11.50;;;;;;;12.32;49.02;99249.13;3548655;40;20055;-68
2021/04/18 09:55:16;;;;;;;13.88;11.10;;;;;;;12.22;48.88;99253.97;3548619;40;20102;-66
2021/04/18 09:58:05;;;;;;;17.40;13.05;;;;;;;12.04;49.00;99255.25;3547430;40;20061;-70
2021/04/18 10:00:36;;;;;;;15.68;10.90;;;;;;;11.60;49.78;99260.69;3536119;40;20055;-66
2021/04/18 10:03:07;;;;;;;16.45;11.15;;;;;;;11.73;49.76;99250.25;3544601;40;20057;-68
2021/04/18 10:05:37;;;;;;;16.35;12.57;;;;;;;11.71;49.78;99254.06;3535821;40;20047;-70
2021/04/18 10:08:18;;;;;;;14.50;10.80;;;;;;;11.64;49.69;99269.91;3544917;40;20111;-70
2021/04/18 10:10:46;;;;;;;14.20;11.75;;;;;;;11.68;49.59;99255.28;3543864;40;20042;-69
2021/04/18 10:13:14;;;;;;;18.45;11.50;;;;;;;11.88;49.48;99261.63;3543802;40;20054;-68
2021/04/18 10:15:52;;;;;;;15.65;11.77;;;;;;;12.01;48.87;99260.09;3534570;40;20404;-69
2021/04/18 10:18:20;;;;;;;14.88;11.60;;;;;;;12.10;49.35;99257.13;3542291;40;20042;-70
2021/04/18 10:20:49;;;;;;;13.55;11.02;;;;;;;12.22;49.77;99254.78;3543519;40;20401;-69
2021/04/18 10:23:15;;;;;;;12.27;10.43;;;;;;;12.21;49.19;99247.03;3535043;40;20054;-67
2021/04/18 10:25:42;;;;;;;15.32;11.65;;;;;;;12.34;49.09;99255.88;3543263;40;20062;-68
2021/04/18 10:28:10;;;;;;;14.70;11.48;;;;;;;12.53;48.34;99256.19;3543053;40;20061;-68
2021/04/18 10:30:39;;;;;;;15.02;11.60;;;;;;;12.49;48.21;99260.25;3542031;40;20078;-68
2021/04/18 10:33:07;;;;;;;14.20;10.60;;;;;;;12.26;47.97;99250.72;3532883;40;20054;-69
2021/04/18 10:35:34;;;;;;;13.90;10.98;;;;;;;12.19;48.37;99247.19;3543159;40;20305;-68
2021/04/18 10:38:03;;;;;;;16.58;13.30;;;;;;;12.15;48.79;99257.34;3543765;40;20054;-68
2021/04/18 10:40:30;;;;;;;11.73;9.55;;;;;;;12.08;48.11;99253.84;3544050;40;20070;-69
2021/04/18 10:42:59;;;;;;;12.88;9.38;;;;;;;11.88;48.68;99252.88;3542763;40;20053;-68
2021/04/18 10:45:29;;;;;;;14.75;9.52;;;;;;;11.77;49.01;99251.50;3542417;40;20079;-68
2021/04/18 10:47:56;;;;;;;10.23;8.38;;;;;;;11.65;49.59;99251.19;3541492;40;20298;-70
2021/04/18 10:50:24;;;;;;;9.45;7.80;;;;;;;11.66;49.45;99257.28;3542791;40;20065;-70
2021/04/18 10:52:50;;;;;;;11.68;8.52;;;;;;;11.68;49.34;99252.63;3541846;40;20412;-69
2021/04/18 10:55:17;;;;;;;10.27;8.68;;;;;;;11.46;49.79;99254.44;3533035;40;20336;-70
2021/04/18 10:57:44;;;;;;;11.40;9.35;;;;;;;11.31;50.27;99253.66;3533481;40;20054;-69
2021/04/18 11:00:14;;;;;;;10.48;9.38;;;;;;;11.26;50.54;99256.84;3543181;40;20153;-70
2021/04/18 11:02:43;;;;;;;12.15;9.70;;;;;;;11.37;50.71;99248.44;3542350;40;20057;-68
2021/04/18 11:05:12;;;;;;;10.07;9.07;;;;;;;11.25;50.75;99252.56;3542534;40;20054;-67
2021/04/18 11:07:39;;;;;;;11.35;8.90;;;;;;;11.38;50.59;99246.59;3543370;40;20058;-66
2021/04/18 11:10:08;;;;;;;10.77;8.70;;;;;;;11.37;50.44;99252.91;3536032;40;20053;-67
2021/04/18 11:12:34;;;;;;;11.60;8.77;;;;;;;11.26;50.52;99261.31;3545214;40;20053;-65
2021/04/18 11:15:01;;;;;;;13.23;9.07;;;;;;;11.14;50.74;99253.03;3545135;40;20057;-69
2021/04/18 11:17:28;;;;;;;11.88;9.52;;;;;;;11.05;51.03;99257.63;3543532;40;20050;-69
2021/04/18 11:19:59;;;;;;;9.38;8.35;;;;;;;11.05;51.19;99252.31;3542939;40;20043;-68
2021/04/18 11:22:27;;;;;;;10.45;8.13;;;;;;;10.99;51.24;99246.97;3543149;40;20059;-67
2021/04/18 11:24:59;;;;;;;11.15;8.43;;;;;;;10.95;51.59;99246.50;3533371;40;20043;-68
2021/04/18 11:27:26;;;;;;;11.70;9.35;;;;;;;10.75;52.11;99254.19;3542396;40;20087;-68
2021/04/18 11:29:54;;;;;;;12.73;9.20;;;;;;;10.80;52.18;99253.63;3542556;40;20051;-67
2021/04/18 11:32:21;;;;;;;13.07;9.75;;;;;;;10.77;52.61;99244.22;3542366;40;20073;-67
2021/04/18 11:34:48;;;;;;;15.90;11.88;;;;;;;10.81;52.52;99245.50;3541916;40;20105;-69
2021/04/18 11:37:21;;;;;;;11.55;9.15;;;;;;;10.91;52.20;99246.06;3542278;40;20051;-70
2021/04/18 11:39:48;;;;;;;10.13;8.02;;;;;;;10.75;52.14;99248.06;3542188;40;20049;-70
2021/04/18 11:42:16;;;;;;;10.25;7.88;;;;;;;10.67;52.45;99248.97;3541988;40;20058;-69